Aérodrome :
LOGIN :

S'inscrire | Disclaimer

   EN    FR    IT 

 










Légende :    VFR   VFR Marginal   IFR   IFR Intensif   IFR Très Intensif
Visi : 
Plafond : 
>= 8 km
>= 3000ft
5 à 8 km
1000 à 3000 ft
1500m à 5 km
500 à 1000 ft
800 à 1500m
200 à 500 ft
< 800m
< 200 ft
Symboles :   Orages  Brouillard  Fortes neiges  Fortes précipitations  Vent > 20 kt
SIGMETs :   Divers  Orages  Givrage  Turbulence  Onde Orograph.  Cendres Volcan.







- Altitude de l'aérodrome : 359 ft
- Code IATA : BVA
- Voir les cartes d'approche


LFOB - Beauvais

DERNIER METAR :
  • 202300Z AUTO 31003KT CAVOK 09/07 Q1018 NOSIG

METARs EXPIRÉS :
  • 202230Z AUTO 32003KT CAVOK 10/08 Q1018 NOSIG
  • 202200Z AUTO 31004KT CAVOK 10/09 Q1018 NOSIG
  • 202130Z AUTO 31005KT CAVOK 11/09 Q1018 NOSIG
  • 202100Z AUTO 30006KT CAVOK 12/09 Q1018 NOSIG
  • 202030Z AUTO 31006KT CAVOK 12/09 Q1017 NOSIG

TAF TAF LFOB
Valide du 20 à 18h jusqu'au 21 à 18h UTC


201700Z 2018/2118 31006KT CAVOK
PROB30 2102/2106 2000 MIFG
ATIS : +33 3 44 11 49 28
Pas de NOTAMs connus pour ce terrain.



MET'MAP, la Météo Aéronautique d'un coup d'oeil ! - Copyright ORBIFLY Décembre 2007 - Disclaimer

ORBIFLY MET'MAP TEAM :

Programmation & Développement : Alexandra Zaïnal
Conception & Développement : Baudouin d'Aumeries
Co-Programmation & Développement : Marc-Olivier Méhu
Soutien technique & logistique : Manuel Goepfert

Contact : metmap@orbifly.com




SOURCES & CREDITS :

   NOAA